PWSweather.com
Personal Weather Stations
Station Observations
BREEJEDURP
'sGravenzande, WestlandNL

'sGravenzandeWestlandNL

Lat: 52.00095260000001, Lon: 4.174256600000035

Elevation: 3

Station Type: Davis Vantage Pro2 Plus

Latest ConditionsUpdated 11:54:00 AM GMT+01:01 Sunday, Jan 21, 2018
Currently Today's Max Today's Min Today's Average
Temperature 43.3°F6.3°C 43.3°F6.3°C 38.1°F3.4°C 40.5°F4.7°C
Dew Point 38.2°F3.4°C 38.5°F3.6°C 33.3°F0.7°C 35.2°F1.8°C
Winds 9.0 mph W14.5 kmh W 12.0 mph N19.3 kmh N - 6.0 mph 9.7 kmh
Wind Gusts 11.0 mph17.7 kmh 21.0 mph33.8 kmh - -
Humidity 82% 92% 77% 81%
Pressure 29.99 in1015.6 mb 29.99 in1015.6 mb 29.69 in1005.4 mb -
Hour Temp Dew Point Humidity Winds Wind Gusts Pressure Precip Precip Rate Daily Precip Total
11:54 AM 43.3°F6.3°C 38.2°F3.4°C 82% 9.0 mph W14.5 kmh W 11.0 mph17.7 kmh 29.99 in1015.6 mb 0.00 in0.0 mm 0.00 in0.0 mm 0.00 in0.0 mm
11:49 AM 43.3°F6.3°C 38.5°F3.6°C 83% 5.0 mph W8.0 kmh W 8.0 mph12.9 kmh 29.99 in1015.6 mb 0.00 in0.0 mm 0.00 in0.0 mm 0.00 in0.0 mm
11:44 AM 43.2°F6.2°C 38.0°F3.3°C 82% 9.0 mph WSW14.5 kmh WSW 12.0 mph19.3 kmh 29.99 in1015.6 mb 0.00 in0.0 mm 0.00 in0.0 mm 0.00 in0.0 mm
11:39 AM 42.6°F5.9°C 37.5°F3.1°C 82% 5.0 mph SW8.0 kmh SW 8.0 mph12.9 kmh 29.99 in1015.6 mb 0.00 in0.0 mm 0.00 in0.0 mm 0.00 in0.0 mm
11:34 AM 42.4°F5.8°C 37.0°F2.8°C 81% 2.0 mph WNW3.2 kmh WNW 5.0 mph8.0 kmh 29.99 in1015.6 mb 0.00 in0.0 mm 0.00 in0.0 mm 0.00 in0.0 mm
11:29 AM 42.6°F5.9°C 36.6°F2.6°C 79% 2.0 mph SW3.2 kmh SW 5.0 mph8.0 kmh 29.99 in1015.6 mb 0.00 in0.0 mm 0.00 in0.0 mm 0.00 in0.0 mm
11:24 AM 42.8°F6.0°C 36.4°F2.4°C 78% 4.0 mph W6.4 kmh W 6.0 mph9.7 kmh 29.99 in1015.6 mb 0.00 in0.0 mm 0.00 in0.0 mm 0.00 in0.0 mm
11:19 AM 43.2°F6.2°C 36.5°F2.5°C 77% 5.0 mph SW8.0 kmh SW 9.0 mph14.5 kmh 29.99 in1015.6 mb 0.00 in0.0 mm 0.00 in0.0 mm 0.00 in0.0 mm
11:14 AM 43.2°F6.2°C 36.5°F2.5°C 77% 3.0 mph WNW4.8 kmh WNW 5.0 mph8.0 kmh 29.99 in1015.6 mb 0.00 in0.0 mm 0.00 in0.0 mm 0.00 in0.0 mm
11:09 AM 43.2°F6.2°C 36.5°F2.5°C 77% 4.0 mph W6.4 kmh W 6.0 mph9.7 kmh 29.99 in1015.6 mb 0.00 in0.0 mm 0.00 in0.0 mm 0.00 in0.0 mm
11:04 AM 43.0°F6.1°C 36.6°F2.6°C 78% 3.0 mph WNW4.8 kmh WNW 4.0 mph6.4 kmh 29.99 in1015.6 mb 0.00 in0.0 mm 0.00 in0.0 mm 0.00 in0.0 mm
10:59 AM 43.0°F6.1°C 36.6°F2.6°C 78% 2.0 mph W3.2 kmh W 4.0 mph6.4 kmh 29.99 in1015.6 mb 0.00 in0.0 mm 0.00 in0.0 mm 0.00 in0.0 mm
10:54 AM 42.6°F5.9°C 36.6°F2.6°C 79% 3.0 mph NW4.8 kmh NW 4.0 mph6.4 kmh 29.98 in1015.2 mb 0.00 in0.0 mm 0.00 in0.0 mm 0.00 in0.0 mm
10:49 AM 42.3°F5.7°C 36.5°F2.5°C 80% 2.0 mph WNW3.2 kmh WNW 3.0 mph4.8 kmh 29.98 in1015.2 mb 0.00 in0.0 mm 0.00 in0.0 mm 0.00 in0.0 mm
10:44 AM 42.1°F5.6°C 36.4°F2.4°C 80% 2.0 mph WNW3.2 kmh WNW 3.0 mph4.8 kmh 29.98 in1015.2 mb 0.00 in0.0 mm 0.00 in0.0 mm 0.00 in0.0 mm
10:39 AM 41.7°F5.4°C 36.0°F2.2°C 80% 3.0 mph WNW4.8 kmh WNW 4.0 mph6.4 kmh 29.98 in1015.2 mb 0.00 in0.0 mm 0.00 in0.0 mm 0.00 in0.0 mm
10:34 AM 41.7°F5.4°C 36.3°F2.4°C 81% 3.0 mph WNW4.8 kmh WNW 5.0 mph8.0 kmh 29.98 in1015.2 mb 0.00 in0.0 mm 0.00 in0.0 mm 0.00 in0.0 mm
10:29 AM 41.5°F5.3°C 36.2°F2.3°C 81% 3.0 mph WNW4.8 kmh WNW 4.0 mph6.4 kmh 29.98 in1015.2 mb 0.00 in0.0 mm 0.00 in0.0 mm 0.00 in0.0 mm
10:24 AM 41.4°F5.2°C 36.0°F2.2°C 81% 3.0 mph NW4.8 kmh NW 4.0 mph6.4 kmh 29.98 in1015.2 mb 0.00 in0.0 mm 0.00 in0.0 mm 0.00 in0.0 mm
10:19 AM 41.4°F5.2°C 36.0°F2.2°C 81% 2.0 mph NW3.2 kmh NW 4.0 mph6.4 kmh 29.98 in1015.2 mb 0.00 in0.0 mm 0.00 in0.0 mm 0.00 in0.0 mm
10:14 AM 41.2°F5.1°C 36.1°F2.3°C 82% 2.0 mph NW3.2 kmh NW 3.0 mph4.8 kmh 29.98 in1015.2 mb 0.00 in0.0 mm 0.00 in0.0 mm 0.00 in0.0 mm
10:09 AM 41.0°F5.0°C 35.9°F2.2°C 82% 1.0 mph NW1.6 kmh NW 2.0 mph3.2 kmh 29.98 in1015.2 mb 0.00 in0.0 mm 0.00 in0.0 mm 0.00 in0.0 mm
10:04 AM 40.8°F4.9°C 35.8°F2.1°C 82% Calm Calm 2.0 mph3.2 kmh 29.97 in1014.9 mb 0.00 in0.0 mm 0.00 in0.0 mm 0.00 in0.0 mm
09:59 AM 40.8°F4.9°C 35.5°F1.9°C 81% 3.0 mph WNW4.8 kmh WNW 4.0 mph6.4 kmh 29.97 in1014.9 mb 0.00 in0.0 mm 0.00 in0.0 mm 0.00 in0.0 mm
09:54 AM 40.6°F4.8°C 35.6°F2.0°C 82% 2.0 mph WNW3.2 kmh WNW 3.0 mph4.8 kmh 29.97 in1014.9 mb 0.00 in0.0 mm 0.00 in0.0 mm 0.00 in0.0 mm
09:49 AM 40.6°F4.8°C 35.3°F1.8°C 81% 3.0 mph WNW4.8 kmh WNW 4.0 mph6.4 kmh 29.97 in1014.9 mb 0.00 in0.0 mm 0.00 in0.0 mm 0.00 in0.0 mm
09:44 AM 40.6°F4.8°C 35.3°F1.8°C 81% 3.0 mph NW4.8 kmh NW 3.0 mph4.8 kmh 29.97 in1014.9 mb 0.00 in0.0 mm 0.00 in0.0 mm 0.00 in0.0 mm
09:39 AM 40.6°F4.8°C 35.0°F1.7°C 80% 3.0 mph NW4.8 kmh NW 4.0 mph6.4 kmh 29.97 in1014.9 mb 0.00 in0.0 mm 0.00 in0.0 mm 0.00 in0.0 mm
09:34 AM 40.5°F4.7°C 35.1°F1.7°C 81% 3.0 mph NW4.8 kmh NW 5.0 mph8.0 kmh 29.96 in1014.6 mb 0.00 in0.0 mm 0.00 in0.0 mm 0.00 in0.0 mm
09:29 AM 40.5°F4.7°C 34.8°F1.6°C 80% 2.0 mph WNW3.2 kmh WNW 4.0 mph6.4 kmh 29.97 in1014.9 mb 0.00 in0.0 mm 0.00 in0.0 mm 0.00 in0.0 mm
09:24 AM 40.5°F4.7°C 34.8°F1.6°C 80% 2.0 mph NNW3.2 kmh NNW 4.0 mph6.4 kmh 29.96 in1014.6 mb 0.00 in0.0 mm 0.00 in0.0 mm 0.00 in0.0 mm
09:19 AM 40.5°F4.7°C 34.5°F1.4°C 79% 1.0 mph NNW1.6 kmh NNW 2.0 mph3.2 kmh 29.96 in1014.6 mb 0.00 in0.0 mm 0.00 in0.0 mm 0.00 in0.0 mm
09:14 AM 40.3°F4.6°C 34.3°F1.3°C 79% 2.0 mph NNW3.2 kmh NNW 4.0 mph6.4 kmh 29.96 in1014.6 mb 0.00 in0.0 mm 0.00 in0.0 mm 0.00 in0.0 mm
09:09 AM 40.3°F4.6°C 34.3°F1.3°C 79% 3.0 mph NNW4.8 kmh NNW 4.0 mph6.4 kmh 29.96 in1014.6 mb 0.00 in0.0 mm 0.00 in0.0 mm 0.00 in0.0 mm
09:04 AM 40.1°F4.5°C 34.1°F1.2°C 79% 2.0 mph NNW3.2 kmh NNW 3.0 mph4.8 kmh 29.96 in1014.6 mb 0.00 in0.0 mm 0.00 in0.0 mm 0.00 in0.0 mm
08:59 AM 40.1°F4.5°C 34.4°F1.3°C 80% 2.0 mph NNW3.2 kmh NNW 3.0 mph4.8 kmh 29.96 in1014.6 mb 0.00 in0.0 mm 0.00 in0.0 mm 0.00 in0.0 mm
08:54 AM 40.1°F4.5°C 34.4°F1.3°C 80% 4.0 mph NNW6.4 kmh NNW 5.0 mph8.0 kmh 29.96 in1014.6 mb 0.00 in0.0 mm 0.00 in0.0 mm 0.00 in0.0 mm
08:49 AM 39.9°F4.4°C 34.6°F1.4°C 81% 5.0 mph NNW8.0 kmh NNW 8.0 mph12.9 kmh 29.96 in1014.6 mb 0.00 in0.0 mm 0.00 in0.0 mm 0.00 in0.0 mm
08:44 AM 39.9°F4.4°C 34.9°F1.6°C 82% 5.0 mph NNE8.0 kmh NNE 7.0 mph11.3 kmh 29.96 in1014.6 mb 0.00 in0.0 mm 0.00 in0.0 mm 0.00 in0.0 mm
08:39 AM 39.9°F4.4°C 34.9°F1.6°C 82% 6.0 mph N9.7 kmh N 11.0 mph17.7 kmh 29.96 in1014.6 mb 0.00 in0.0 mm 0.00 in0.0 mm 0.00 in0.0 mm
08:34 AM 39.9°F4.4°C 34.6°F1.4°C 81% 8.0 mph NW12.9 kmh NW 14.0 mph22.5 kmh 29.95 in1014.2 mb 0.00 in0.0 mm 0.00 in0.0 mm 0.00 in0.0 mm
08:29 AM 39.9°F4.4°C 33.6°F0.9°C 78% 4.0 mph NNW6.4 kmh NNW 7.0 mph11.3 kmh 29.95 in1014.2 mb 0.00 in0.0 mm 0.00 in0.0 mm 0.00 in0.0 mm
08:24 AM 39.7°F4.3°C 33.8°F1.0°C 79% 4.0 mph NNW6.4 kmh NNW 5.0 mph8.0 kmh 29.94 in1013.9 mb 0.00 in0.0 mm 0.00 in0.0 mm 0.00 in0.0 mm
08:19 AM 39.7°F4.3°C 34.1°F1.2°C 80% 5.0 mph N8.0 kmh N 9.0 mph14.5 kmh 29.94 in1013.9 mb 0.00 in0.0 mm 0.00 in0.0 mm 0.00 in0.0 mm
08:14 AM 39.7°F4.3°C 34.1°F1.2°C 80% 7.0 mph NNW11.3 kmh NNW 10.0 mph16.1 kmh 29.94 in1013.9 mb 0.00 in0.0 mm 0.00 in0.0 mm 0.00 in0.0 mm
08:09 AM 39.9°F4.4°C 34.3°F1.3°C 80% 6.0 mph N9.7 kmh N 9.0 mph14.5 kmh 29.94 in1013.9 mb 0.00 in0.0 mm 0.00 in0.0 mm 0.00 in0.0 mm
08:04 AM 40.3°F4.6°C 34.3°F1.3°C 79% 7.0 mph N11.3 kmh N 13.0 mph20.9 kmh 29.94 in1013.9 mb 0.00 in0.0 mm 0.00 in0.0 mm 0.00 in0.0 mm
07:59 AM 40.1°F4.5°C 34.1°F1.2°C 79% 6.0 mph NNW9.7 kmh NNW 11.0 mph17.7 kmh 29.93 in1013.5 mb 0.00 in0.0 mm 0.00 in0.0 mm 0.00 in0.0 mm
07:54 AM 39.9°F4.4°C 34.3°F1.3°C 80% 3.0 mph N4.8 kmh N 6.0 mph9.7 kmh 29.93 in1013.5 mb 0.00 in0.0 mm 0.00 in0.0 mm 0.00 in0.0 mm
07:49 AM 39.7°F4.3°C 34.7°F1.5°C 82% 3.0 mph NW4.8 kmh NW 5.0 mph8.0 kmh 29.93 in1013.5 mb 0.00 in0.0 mm 0.00 in0.0 mm 0.00 in0.0 mm
07:44 AM 39.7°F4.3°C 34.7°F1.5°C 82% 5.0 mph NW8.0 kmh NW 7.0 mph11.3 kmh 29.93 in1013.5 mb 0.00 in0.0 mm 0.00 in0.0 mm 0.00 in0.0 mm
07:39 AM 39.9°F4.4°C 34.9°F1.6°C 82% 3.0 mph WNW4.8 kmh WNW 4.0 mph6.4 kmh 29.93 in1013.5 mb 0.00 in0.0 mm 0.00 in0.0 mm 0.00 in0.0 mm
07:34 AM 39.9°F4.4°C 34.6°F1.4°C 81% 3.0 mph NW4.8 kmh NW 5.0 mph8.0 kmh 29.93 in1013.5 mb 0.00 in0.0 mm 0.00 in0.0 mm 0.00 in0.0 mm
07:29 AM 39.9°F4.4°C 34.6°F1.4°C 81% 3.0 mph NW4.8 kmh NW 5.0 mph8.0 kmh 29.92 in1013.2 mb 0.00 in0.0 mm 0.00 in0.0 mm 0.00 in0.0 mm
07:24 AM 39.9°F4.4°C 34.6°F1.4°C 81% 3.0 mph NW4.8 kmh NW 8.0 mph12.9 kmh 29.92 in1013.2 mb 0.00 in0.0 mm 0.00 in0.0 mm 0.00 in0.0 mm
07:19 AM 39.9°F4.4°C 34.0°F1.1°C 79% 4.0 mph NW6.4 kmh NW 5.0 mph8.0 kmh 29.92 in1013.2 mb 0.00 in0.0 mm 0.00 in0.0 mm 0.00 in0.0 mm
07:14 AM 39.9°F4.4°C 34.0°F1.1°C 79% 4.0 mph NW6.4 kmh NW 6.0 mph9.7 kmh 29.92 in1013.2 mb 0.00 in0.0 mm 0.00 in0.0 mm 0.00 in0.0 mm
07:09 AM 39.9°F4.4°C 34.0°F1.1°C 79% 4.0 mph N6.4 kmh N 6.0 mph9.7 kmh 29.91 in1012.9 mb 0.00 in0.0 mm 0.00 in0.0 mm 0.00 in0.0 mm
07:04 AM 39.9°F4.4°C 34.0°F1.1°C 79% 3.0 mph NW4.8 kmh NW 5.0 mph8.0 kmh 29.91 in1012.9 mb 0.00 in0.0 mm 0.00 in0.0 mm 0.00 in0.0 mm
06:59 AM 39.9°F4.4°C 33.6°F0.9°C 78% 7.0 mph NW11.3 kmh NW 11.0 mph17.7 kmh 29.91 in1012.9 mb 0.00 in0.0 mm 0.00 in0.0 mm 0.00 in0.0 mm
06:54 AM 39.9°F4.4°C 33.3°F0.7°C 77% 7.0 mph NW11.3 kmh NW 9.0 mph14.5 kmh 29.91 in1012.9 mb 0.00 in0.0 mm 0.00 in0.0 mm 0.00 in0.0 mm
06:49 AM 39.9°F4.4°C 33.3°F0.7°C 77% 7.0 mph NNW11.3 kmh NNW 10.0 mph16.1 kmh 29.91 in1012.9 mb 0.00 in0.0 mm 0.00 in0.0 mm 0.00 in0.0 mm
06:44 AM 40.1°F4.5°C 33.5°F0.8°C 77% 7.0 mph WNW11.3 kmh WNW 13.0 mph20.9 kmh 29.91 in1012.9 mb 0.00 in0.0 mm 0.00 in0.0 mm 0.00 in0.0 mm
06:39 AM 40.5°F4.7°C 34.5°F1.4°C 79% 7.0 mph NW11.3 kmh NW 10.0 mph16.1 kmh 29.91 in1012.9 mb 0.00 in0.0 mm 0.00 in0.0 mm 0.00 in0.0 mm
06:34 AM 40.5°F4.7°C 34.5°F1.4°C 79% 5.0 mph NW8.0 kmh NW 8.0 mph12.9 kmh 29.90 in1012.5 mb 0.00 in0.0 mm 0.00 in0.0 mm 0.00 in0.0 mm
06:29 AM 40.5°F4.7°C 34.5°F1.4°C 79% 6.0 mph WNW9.7 kmh WNW 8.0 mph12.9 kmh 29.90 in1012.5 mb 0.00 in0.0 mm 0.00 in0.0 mm 0.00 in0.0 mm
06:24 AM 40.5°F4.7°C 34.8°F1.6°C 80% 5.0 mph N8.0 kmh N 9.0 mph14.5 kmh 29.90 in1012.5 mb 0.00 in0.0 mm 0.00 in0.0 mm 0.00 in0.0 mm
06:19 AM 40.3°F4.6°C 34.9°F1.6°C 81% 8.0 mph NW12.9 kmh NW 12.0 mph19.3 kmh 29.90 in1012.5 mb 0.00 in0.0 mm 0.00 in0.0 mm 0.00 in0.0 mm
06:14 AM 40.3°F4.6°C 35.2°F1.8°C 82% 5.0 mph NW8.0 kmh NW 9.0 mph14.5 kmh 29.90 in1012.5 mb 0.00 in0.0 mm 0.00 in0.0 mm 0.00 in0.0 mm
06:09 AM 40.3°F4.6°C 35.2°F1.8°C 82% 6.0 mph NW9.7 kmh NW 11.0 mph17.7 kmh 29.90 in1012.5 mb 0.00 in0.0 mm 0.00 in0.0 mm 0.00 in0.0 mm
06:04 AM 40.1°F4.5°C 35.4°F1.9°C 83% 9.0 mph NW14.5 kmh NW 12.0 mph19.3 kmh 29.89 in1012.2 mb 0.00 in0.0 mm 0.00 in0.0 mm 0.00 in0.0 mm
05:59 AM 40.1°F4.5°C 35.1°F1.7°C 82% 6.0 mph NW9.7 kmh NW 9.0 mph14.5 kmh 29.89 in1012.2 mb 0.00 in0.0 mm 0.00 in0.0 mm 0.00 in0.0 mm
05:54 AM 40.1°F4.5°C 34.8°F1.6°C 81% 8.0 mph NW12.9 kmh NW 11.0 mph17.7 kmh 29.89 in1012.2 mb 0.00 in0.0 mm 0.00 in0.0 mm 0.00 in0.0 mm
05:49 AM 40.3°F4.6°C 34.9°F1.6°C 81% 6.0 mph NW9.7 kmh NW 9.0 mph14.5 kmh 29.88 in1011.9 mb 0.00 in0.0 mm 0.00 in0.0 mm 0.00 in0.0 mm
05:44 AM 40.5°F4.7°C 34.8°F1.6°C 80% 7.0 mph NW11.3 kmh NW 10.0 mph16.1 kmh 29.88 in1011.9 mb 0.00 in0.0 mm 0.00 in0.0 mm 0.00 in0.0 mm
05:39 AM 40.5°F4.7°C 34.2°F1.2°C 78% 8.0 mph NW12.9 kmh NW 10.0 mph16.1 kmh 29.88 in1011.9 mb 0.00 in0.0 mm 0.00 in0.0 mm 0.00 in0.0 mm
05:34 AM 40.5°F4.7°C 34.2°F1.2°C 78% 6.0 mph N9.7 kmh N 13.0 mph20.9 kmh 29.88 in1011.9 mb 0.00 in0.0 mm 0.00 in0.0 mm 0.00 in0.0 mm
05:29 AM 40.5°F4.7°C 34.2°F1.2°C 78% 5.0 mph NW8.0 kmh NW 9.0 mph14.5 kmh 29.88 in1011.9 mb 0.00 in0.0 mm 0.00 in0.0 mm 0.00 in0.0 mm
05:24 AM 40.5°F4.7°C 34.2°F1.2°C 78% 8.0 mph N12.9 kmh N 11.0 mph17.7 kmh 29.87 in1011.5 mb 0.00 in0.0 mm 0.00 in0.0 mm 0.00 in0.0 mm
05:19 AM 40.3°F4.6°C 34.6°F1.4°C 80% 11.0 mph N17.7 kmh N 15.0 mph24.1 kmh 29.87 in1011.5 mb 0.00 in0.0 mm 0.00 in0.0 mm 0.00 in0.0 mm
05:14 AM 40.3°F4.6°C 34.3°F1.3°C 79% 4.0 mph NW6.4 kmh NW 6.0 mph9.7 kmh 29.87 in1011.5 mb 0.00 in0.0 mm 0.00 in0.0 mm 0.00 in0.0 mm
05:09 AM 40.3°F4.6°C 34.3°F1.3°C 79% 8.0 mph NNW12.9 kmh NNW 12.0 mph19.3 kmh 29.87 in1011.5 mb 0.00 in0.0 mm 0.00 in0.0 mm 0.00 in0.0 mm
05:04 AM 40.3°F4.6°C 34.6°F1.4°C 80% 9.0 mph NNW14.5 kmh NNW 15.0 mph24.1 kmh 29.86 in1011.2 mb 0.00 in0.0 mm 0.00 in0.0 mm 0.00 in0.0 mm
04:59 AM 40.1°F4.5°C 34.4°F1.3°C 80% 6.0 mph WNW9.7 kmh WNW 11.0 mph17.7 kmh 29.86 in1011.2 mb 0.00 in0.0 mm 0.00 in0.0 mm 0.00 in0.0 mm
04:54 AM 40.1°F4.5°C 34.1°F1.2°C 79% 10.0 mph NW16.1 kmh NW 12.0 mph19.3 kmh 29.86 in1011.2 mb 0.00 in0.0 mm 0.00 in0.0 mm 0.00 in0.0 mm
04:49 AM 40.3°F4.6°C 34.6°F1.4°C 80% 9.0 mph NW14.5 kmh NW 14.0 mph22.5 kmh 29.86 in1011.2 mb 0.00 in0.0 mm 0.00 in0.0 mm 0.00 in0.0 mm
04:44 AM 40.3°F4.6°C 34.3°F1.3°C 79% 7.0 mph NW11.3 kmh NW 12.0 mph19.3 kmh 29.85 in1010.8 mb 0.00 in0.0 mm 0.00 in0.0 mm 0.00 in0.0 mm
04:39 AM 40.1°F4.5°C 34.4°F1.3°C 80% 8.0 mph NNW12.9 kmh NNW 13.0 mph20.9 kmh 29.85 in1010.8 mb 0.00 in0.0 mm 0.00 in0.0 mm 0.00 in0.0 mm
04:34 AM 39.9°F4.4°C 34.9°F1.6°C 82% 10.0 mph NNW16.1 kmh NNW 15.0 mph24.1 kmh 29.85 in1010.8 mb 0.00 in0.0 mm 0.00 in0.0 mm 0.00 in0.0 mm
04:29 AM 39.9°F4.4°C 34.9°F1.6°C 82% 8.0 mph NW12.9 kmh NW 13.0 mph20.9 kmh 29.85 in1010.8 mb 0.00 in0.0 mm 0.00 in0.0 mm 0.00 in0.0 mm
04:24 AM 39.9°F4.4°C 34.6°F1.4°C 81% 5.0 mph NW8.0 kmh NW 8.0 mph12.9 kmh 29.84 in1010.5 mb 0.00 in0.0 mm 0.00 in0.0 mm 0.00 in0.0 mm
04:19 AM 39.9°F4.4°C 34.3°F1.3°C 80% 8.0 mph N12.9 kmh N 11.0 mph17.7 kmh 29.84 in1010.5 mb 0.00 in0.0 mm 0.00 in0.0 mm 0.00 in0.0 mm
04:14 AM 40.1°F4.5°C 34.1°F1.2°C 79% 10.0 mph NW16.1 kmh NW 14.0 mph22.5 kmh 29.84 in1010.5 mb 0.00 in0.0 mm 0.00 in0.0 mm 0.00 in0.0 mm
04:09 AM 40.1°F4.5°C 34.1°F1.2°C 79% 11.0 mph NNW17.7 kmh NNW 17.0 mph27.4 kmh 29.84 in1010.5 mb 0.00 in0.0 mm 0.00 in0.0 mm 0.00 in0.0 mm
04:04 AM 39.9°F4.4°C 34.3°F1.3°C 80% 9.0 mph NW14.5 kmh NW 13.0 mph20.9 kmh 29.83 in1010.2 mb 0.00 in0.0 mm 0.00 in0.0 mm 0.00 in0.0 mm
03:59 AM 40.3°F4.6°C 34.6°F1.4°C 80% 6.0 mph NW9.7 kmh NW 10.0 mph16.1 kmh 29.83 in1010.2 mb 0.00 in0.0 mm 0.00 in0.0 mm 0.00 in0.0 mm
03:54 AM 40.5°F4.7°C 34.8°F1.6°C 80% 12.0 mph NW19.3 kmh NW 21.0 mph33.8 kmh 29.83 in1010.2 mb 0.00 in0.0 mm 0.00 in0.0 mm 0.00 in0.0 mm
03:49 AM 40.3°F4.6°C 34.3°F1.3°C 79% 6.0 mph N9.7 kmh N 10.0 mph16.1 kmh 29.83 in1010.2 mb 0.00 in0.0 mm 0.00 in0.0 mm 0.00 in0.0 mm
03:44 AM 40.3°F4.6°C 34.3°F1.3°C 79% 9.0 mph N14.5 kmh N 13.0 mph20.9 kmh 29.82 in1009.8 mb 0.00 in0.0 mm 0.00 in0.0 mm 0.00 in0.0 mm
03:39 AM 40.3°F4.6°C 34.6°F1.4°C 80% 8.0 mph NNW12.9 kmh NNW 11.0 mph17.7 kmh 29.82 in1009.8 mb 0.00 in0.0 mm 0.00 in0.0 mm 0.00 in0.0 mm
03:34 AM 40.1°F4.5°C 34.1°F1.2°C 79% 9.0 mph N14.5 kmh N 12.0 mph19.3 kmh 29.82 in1009.8 mb 0.00 in0.0 mm 0.00 in0.0 mm 0.00 in0.0 mm
03:29 AM 40.3°F4.6°C 34.6°F1.4°C 80% 7.0 mph N11.3 kmh N 12.0 mph19.3 kmh 29.82 in1009.8 mb 0.00 in0.0 mm 0.00 in0.0 mm 0.00 in0.0 mm
03:24 AM 40.3°F4.6°C 34.6°F1.4°C 80% 11.0 mph NW17.7 kmh NW 13.0 mph20.9 kmh 29.82 in1009.8 mb 0.00 in0.0 mm 0.00 in0.0 mm 0.00 in0.0 mm
03:19 AM 40.3°F4.6°C 34.9°F1.6°C 81% 9.0 mph NNW14.5 kmh NNW 14.0 mph22.5 kmh 29.82 in1009.8 mb 0.00 in0.0 mm 0.00 in0.0 mm 0.00 in0.0 mm
03:14 AM 40.3°F4.6°C 35.2°F1.8°C 82% 12.0 mph NNW19.3 kmh NNW 17.0 mph27.4 kmh 29.82 in1009.8 mb 0.00 in0.0 mm 0.00 in0.0 mm 0.00 in0.0 mm
03:09 AM 40.5°F4.7°C 35.4°F1.9°C 82% 8.0 mph N12.9 kmh N 14.0 mph22.5 kmh 29.82 in1009.8 mb 0.00 in0.0 mm 0.00 in0.0 mm 0.00 in0.0 mm
03:04 AM 40.5°F4.7°C 35.1°F1.7°C 81% 8.0 mph NNW12.9 kmh NNW 12.0 mph19.3 kmh 29.81 in1009.5 mb 0.00 in0.0 mm 0.00 in0.0 mm 0.00 in0.0 mm
02:59 AM 40.3°F4.6°C 34.6°F1.4°C 80% 7.0 mph NNE11.3 kmh NNE 11.0 mph17.7 kmh 29.81 in1009.5 mb 0.00 in0.0 mm 0.00 in0.0 mm 0.00 in0.0 mm
02:54 AM 40.3°F4.6°C 34.9°F1.6°C 81% 7.0 mph N11.3 kmh N 13.0 mph20.9 kmh 29.80 in1009.1 mb 0.00 in0.0 mm 0.00 in0.0 mm 0.00 in0.0 mm
02:49 AM 40.3°F4.6°C 35.2°F1.8°C 82% 8.0 mph NW12.9 kmh NW 13.0 mph20.9 kmh 29.80 in1009.1 mb 0.00 in0.0 mm 0.00 in0.0 mm 0.00 in0.0 mm
02:44 AM 40.3°F4.6°C 35.2°F1.8°C 82% 9.0 mph NNW14.5 kmh NNW 11.0 mph17.7 kmh 29.80 in1009.1 mb 0.00 in0.0 mm 0.00 in0.0 mm 0.00 in0.0 mm
02:39 AM 40.3°F4.6°C 34.9°F1.6°C 81% 9.0 mph N14.5 kmh N 17.0 mph27.4 kmh 29.80 in1009.1 mb 0.00 in0.0 mm 0.00 in0.0 mm 0.00 in0.0 mm
02:34 AM 40.5°F4.7°C 35.4°F1.9°C 82% 11.0 mph NNW17.7 kmh NNW 17.0 mph27.4 kmh 29.79 in1008.8 mb 0.00 in0.0 mm 0.00 in0.0 mm 0.00 in0.0 mm
02:29 AM 40.5°F4.7°C 35.7°F2.1°C 83% 10.0 mph N16.1 kmh N 20.0 mph32.2 kmh 29.79 in1008.8 mb 0.00 in0.0 mm 0.00 in0.0 mm 0.00 in0.0 mm
02:24 AM 40.6°F4.8°C 35.9°F2.2°C 83% 9.0 mph NNW14.5 kmh NNW 12.0 mph19.3 kmh 29.78 in1008.5 mb 0.00 in0.0 mm 0.00 in0.0 mm 0.00 in0.0 mm
02:19 AM 40.6°F4.8°C 35.6°F2.0°C 82% 11.0 mph NNW17.7 kmh NNW 18.0 mph29.0 kmh 29.78 in1008.5 mb 0.00 in0.0 mm 0.00 in0.0 mm 0.00 in0.0 mm
02:14 AM 40.6°F4.8°C 35.3°F1.8°C 81% 9.0 mph N14.5 kmh N 11.0 mph17.7 kmh 29.78 in1008.5 mb 0.00 in0.0 mm 0.00 in0.0 mm 0.00 in0.0 mm
02:09 AM 40.6°F4.8°C 34.7°F1.5°C 79% 9.0 mph N14.5 kmh N 14.0 mph22.5 kmh 29.77 in1008.1 mb 0.00 in0.0 mm 0.00 in0.0 mm 0.00 in0.0 mm
02:04 AM 40.6°F4.8°C 34.7°F1.5°C 79% 7.0 mph N11.3 kmh N 13.0 mph20.9 kmh 29.77 in1008.1 mb 0.00 in0.0 mm 0.00 in0.0 mm 0.00 in0.0 mm
01:59 AM 40.6°F4.8°C 34.3°F1.3°C 78% 10.0 mph N16.1 kmh N 17.0 mph27.4 kmh 29.77 in1008.1 mb 0.00 in0.0 mm 0.00 in0.0 mm 0.00 in0.0 mm
01:54 AM 40.6°F4.8°C 34.3°F1.3°C 78% 9.0 mph NNW14.5 kmh NNW 12.0 mph19.3 kmh 29.77 in1008.1 mb 0.00 in0.0 mm 0.00 in0.0 mm 0.00 in0.0 mm
01:49 AM 40.6°F4.8°C 35.0°F1.7°C 80% 9.0 mph NNW14.5 kmh NNW 15.0 mph24.1 kmh 29.76 in1007.8 mb 0.00 in0.0 mm 0.00 in0.0 mm 0.00 in0.0 mm
01:44 AM 40.6°F4.8°C 35.0°F1.7°C 80% 6.0 mph NNE9.7 kmh NNE 9.0 mph14.5 kmh 29.76 in1007.8 mb 0.00 in0.0 mm 0.00 in0.0 mm 0.00 in0.0 mm
01:39 AM 40.6°F4.8°C 35.3°F1.8°C 81% 10.0 mph NNW16.1 kmh NNW 12.0 mph19.3 kmh 29.75 in1007.5 mb 0.00 in0.0 mm 0.00 in0.0 mm 0.00 in0.0 mm
01:34 AM 40.6°F4.8°C 35.3°F1.8°C 81% 8.0 mph NNE12.9 kmh NNE 11.0 mph17.7 kmh 29.75 in1007.5 mb 0.00 in0.0 mm 0.00 in0.0 mm 0.00 in0.0 mm
01:29 AM 40.6°F4.8°C 35.9°F2.2°C 83% 10.0 mph NNW16.1 kmh NNW 17.0 mph27.4 kmh 29.75 in1007.5 mb 0.00 in0.0 mm 0.00 in0.0 mm 0.00 in0.0 mm
01:24 AM 40.5°F4.7°C 36.0°F2.2°C 84% 6.0 mph NNW9.7 kmh NNW 9.0 mph14.5 kmh 29.74 in1007.1 mb 0.00 in0.0 mm 0.00 in0.0 mm 0.00 in0.0 mm
01:19 AM 40.5°F4.7°C 36.3°F2.4°C 85% 5.0 mph N8.0 kmh N 10.0 mph16.1 kmh 29.74 in1007.1 mb 0.00 in0.0 mm 0.00 in0.0 mm 0.00 in0.0 mm
01:14 AM 40.5°F4.7°C 36.0°F2.2°C 84% 6.0 mph NNW9.7 kmh NNW 11.0 mph17.7 kmh 29.74 in1007.1 mb 0.00 in0.0 mm 0.00 in0.0 mm 0.00 in0.0 mm
01:09 AM 40.5°F4.7°C 36.3°F2.4°C 85% 7.0 mph N11.3 kmh N 11.0 mph17.7 kmh 29.73 in1006.8 mb 0.00 in0.0 mm 0.00 in0.0 mm 0.00 in0.0 mm
01:04 AM 40.3°F4.6°C 36.1°F2.3°C 85% 5.0 mph N8.0 kmh N 9.0 mph14.5 kmh 29.73 in1006.8 mb 0.00 in0.0 mm 0.00 in0.0 mm 0.00 in0.0 mm
12:59 AM 40.5°F4.7°C 36.3°F2.4°C 85% 7.0 mph NNW11.3 kmh NNW 11.0 mph17.7 kmh 29.72 in1006.4 mb 0.00 in0.0 mm 0.00 in0.0 mm 0.00 in0.0 mm
12:54 AM 40.5°F4.7°C 36.3°F2.4°C 85% 9.0 mph NNW14.5 kmh NNW 15.0 mph24.1 kmh 29.72 in1006.4 mb 0.00 in0.0 mm 0.00 in0.0 mm 0.00 in0.0 mm
12:49 AM 40.5°F4.7°C 36.6°F2.6°C 86% 7.0 mph N11.3 kmh N 11.0 mph17.7 kmh 29.72 in1006.4 mb 0.00 in0.0 mm 0.00 in0.0 mm 0.00 in0.0 mm
12:44 AM 40.5°F4.7°C 36.6°F2.6°C 86% 8.0 mph NNW12.9 kmh NNW 15.0 mph24.1 kmh 29.72 in1006.4 mb 0.00 in0.0 mm 0.00 in0.0 mm 0.00 in0.0 mm
12:39 AM 40.5°F4.7°C 36.9°F2.7°C 87% 11.0 mph N17.7 kmh N 15.0 mph24.1 kmh 29.71 in1006.1 mb 0.00 in0.0 mm 0.00 in0.0 mm 0.00 in0.0 mm
12:34 AM 40.5°F4.7°C 37.5°F3.1°C 89% 12.0 mph N19.3 kmh N 16.0 mph25.7 kmh 29.71 in1006.1 mb 0.00 in0.0 mm 0.00 in0.0 mm 0.00 in0.0 mm
12:29 AM 39.9°F4.4°C 37.5°F3.1°C 91% 11.0 mph N17.7 kmh N 15.0 mph24.1 kmh 29.70 in1005.8 mb 0.00 in0.0 mm 0.00 in0.0 mm 0.00 in0.0 mm
12:24 AM 38.8°F3.8°C 36.7°F2.6°C 92% 6.0 mph NNW9.7 kmh NNW 11.0 mph17.7 kmh 29.70 in1005.8 mb 0.00 in0.0 mm 0.00 in0.0 mm 0.00 in0.0 mm
12:19 AM 38.5°F3.6°C 36.4°F2.4°C 92% 2.0 mph N3.2 kmh N 3.0 mph4.8 kmh 29.70 in1005.8 mb 0.00 in0.0 mm 0.00 in0.0 mm 0.00 in0.0 mm
12:14 AM 38.1°F3.4°C 36.0°F2.2°C 92% 2.0 mph NNE3.2 kmh NNE 3.0 mph4.8 kmh 29.69 in1005.4 mb 0.00 in0.0 mm 0.00 in0.0 mm 0.00 in0.0 mm
12:09 AM 38.1°F3.4°C 36.0°F2.2°C 92% 1.0 mph N1.6 kmh N 3.0 mph4.8 kmh 29.69 in1005.4 mb 0.00 in0.0 mm 0.00 in0.0 mm 0.00 in0.0 mm
12:04 AM 38.1°F3.4°C 35.7°F2.1°C 91% 2.0 mph NNE3.2 kmh NNE 4.0 mph6.4 kmh 29.69 in1005.4 mb 0.00 in0.0 mm 0.00 in0.0 mm 0.00 in0.0 mm